Time;durP1;ratioP1;P1;durP2;ratioP2;P2;SDS_P1;SDS_P2;PMS_P1;PMS_P2;Temp;Humidity;BMP_temperature;BMP_pressure;BME280_temperature;BME280_humidity;BME280_pressure;Samples;Min_cycle;Max_cycle;Signal;HPM_P1;HPM_P2
2021/05/22 00:01:29;;;;;;;3.63;3.33;;;;;;;;;;5055489;28;20171;-83
2021/05/22 00:03:55;;;;;;;4.23;3.50;;;;;;;;;;5055115;28;20506;-82
2021/05/22 00:06:21;;;;;;;4.27;3.97;;;;;;;;;;5054882;28;20651;-82
2021/05/22 00:08:46;;;;;;;5.87;4.50;;;;;;;;;;5054792;28;20175;-82
2021/05/22 00:11:12;;;;;;;4.63;4.20;;;;;;;;;;5054727;28;20175;-83
2021/05/22 00:13:37;;;;;;;4.43;4.03;;;;;;;;;;5054746;28;20160;-83
2021/05/22 00:16:02;;;;;;;4.40;4.00;;;;;;;;;;5054374;28;20570;-83
2021/05/22 00:18:28;;;;;;;4.53;4.00;;;;;;;;;;5054418;28;20687;-83
2021/05/22 00:20:53;;;;;;;5.33;3.93;;;;;;;;;;5054357;28;20628;-83
2021/05/22 00:23:18;;;;;;;4.33;3.50;;;;;;;;;;5054709;28;20199;-83
2021/05/22 00:25:44;;;;;;;3.50;3.20;;;;;;;;;;5054759;28;20188;-83
2021/05/22 00:28:09;;;;;;;3.60;3.30;;;;;;;;;;5054476;28;20164;-83
2021/05/22 00:30:34;;;;;;;3.70;3.40;;;;;;;;;;5054435;28;20227;-83
2021/05/22 00:33:00;;;;;;;4.10;3.70;;;;;;;;;;5054345;28;20185;-83
2021/05/22 00:35:25;;;;;;;3.83;3.53;;;;;;;;;;5054481;28;20195;-83
2021/05/22 00:37:50;;;;;;;4.13;3.73;;;;;;;;;;5054047;28;20187;-83
2021/05/22 00:40:16;;;;;;;4.00;3.63;;;;;;;;;;5054946;28;20164;-83
2021/05/22 00:42:43;;;;;;;4.27;3.60;;;;;;;;;;5054319;28;20178;-83
2021/05/22 00:45:11;;;;;;;6.60;4.20;;;;;;;;;;5054689;28;20178;-83
2021/05/22 00:47:38;;;;;;;4.30;3.90;;;;;;;;;;5054333;28;20172;-83
2021/05/22 00:50:05;;;;;;;3.90;3.60;;;;;;;;;;5053831;28;20168;-83
2021/05/22 00:52:30;;;;;;;4.17;3.80;;;;;;;;;;5054044;28;20180;-83
2021/05/22 00:54:55;;;;;;;4.27;3.80;;;;;;;;;;5054275;28;20203;-83
2021/05/22 00:57:21;;;;;;;4.87;3.63;;;;;;;;;;5054853;28;20549;-83
2021/05/22 00:59:46;;;;;;;4.30;3.90;;;;;;;;;;5054263;28;20571;-83
2021/05/22 01:02:13;;;;;;;4.37;3.97;;;;;;;;;;5054138;28;20628;-83
2021/05/22 01:04:38;;;;;;;4.77;4.27;;;;;;;;;;5053890;28;20172;-83
2021/05/22 01:07:04;;;;;;;5.67;4.50;;;;;;;;;;5053612;28;20168;-83
2021/05/22 01:09:30;;;;;;;4.80;4.40;;;;;;;;;;5053827;28;20174;-83
2021/05/22 01:11:57;;;;;;;5.17;4.67;;;;;;;;;;5053543;28;20532;-83
2021/05/22 01:14:26;;;;;;;4.90;4.40;;;;;;;;;;5053751;28;20172;-83
2021/05/22 01:16:53;;;;;;;4.53;4.10;;;;;;;;;;5054117;28;20176;-83
2021/05/22 01:19:37;;;;;;;5.03;4.37;;;;;;;;;;5054307;28;20233;-83
2021/05/22 01:22:02;;;;;;;6.27;4.30;;;;;;;;;;5053743;28;20174;-83
2021/05/22 01:24:30;;;;;;;4.57;4.17;;;;;;;;;;5053422;28;20168;-83
2021/05/22 01:26:56;;;;;;;4.40;4.00;;;;;;;;;;5053580;28;20237;-84
2021/05/22 01:29:21;;;;;;;4.93;4.43;;;;;;;;;;5052324;28;20175;-84
2021/05/22 01:31:47;;;;;;;5.70;4.30;;;;;;;;;;5054125;28;20227;-84
2021/05/22 01:34:12;;;;;;;5.17;4.67;;;;;;;;;;5053745;28;20493;-84
2021/05/22 01:36:38;;;;;;;4.50;4.10;;;;;;;;;;5053825;28;20235;-84
2021/05/22 01:39:03;;;;;;;5.17;4.57;;;;;;;;;;5053580;28;20164;-83
2021/05/22 01:41:28;;;;;;;4.33;3.93;;;;;;;;;;5054058;28;20176;-83
2021/05/22 01:43:56;;;;;;;4.23;3.83;;;;;;;;;;5052284;28;20191;-83
2021/05/22 01:46:23;;;;;;;4.53;3.77;;;;;;;;;;5053091;28;20570;-83
2021/05/22 01:48:50;;;;;;;5.33;3.80;;;;;;;;;;5053129;28;20180;-83
2021/05/22 01:51:16;;;;;;;4.50;4.10;;;;;;;;;;5052420;28;20625;-83
2021/05/22 01:53:42;;;;;;;3.70;3.40;;;;;;;;;;5053550;28;20199;-83
2021/05/22 01:56:09;;;;;;;4.17;3.40;;;;;;;;;;5053323;28;20673;-83
2021/05/22 01:58:35;;;;;;;3.40;3.10;;;;;;;;;;5053635;28;20532;-83
2021/05/22 02:01:00;;;;;;;5.97;3.20;;;;;;;;;;5053352;28;20179;-83
2021/05/22 02:03:42;;;;;;;3.57;3.27;;;;;;;;;;5053384;28;20176;-83
2021/05/22 02:06:13;;;;;;;3.60;3.30;;;;;;;;;;5053417;28;20211;-83
2021/05/22 02:08:41;;;;;;;4.23;3.43;;;;;;;;;;5053672;28;20164;-82
2021/05/22 02:11:07;;;;;;;3.63;3.33;;;;;;;;;;5053081;28;20200;-84
2021/05/22 02:13:32;;;;;;;3.60;3.30;;;;;;;;;;5053349;28;20654;-84
2021/05/22 02:15:59;;;;;;;3.57;3.27;;;;;;;;;;5052798;28;20648;-84
2021/05/22 02:18:28;;;;;;;5.13;3.77;;;;;;;;;;5054445;28;20230;-84
2021/05/22 02:20:55;;;;;;;3.60;3.30;;;;;;;;;;5057184;28;20608;-84
2021/05/22 02:23:22;;;;;;;4.43;3.37;;;;;;;;;;5056541;28;20543;-83
2021/05/22 02:25:47;;;;;;;5.17;3.23;;;;;;;;;;5056424;28;20192;-83
2021/05/22 02:28:13;;;;;;;3.50;3.20;;;;;;;;;;5056864;28;20176;-84
2021/05/22 02:30:40;;;;;;;4.73;3.50;;;;;;;;;;5056689;28;20223;-84
2021/05/22 02:33:06;;;;;;;4.23;3.20;;;;;;;;;;5056419;28;20206;-83
2021/05/22 02:35:32;;;;;;;3.80;3.07;;;;;;;;;;5056979;28;20219;-83
2021/05/22 02:37:58;;;;;;;3.63;3.10;;;;;;;;;;5057373;28;20176;-83
2021/05/22 02:40:24;;;;;;;5.03;3.60;;;;;;;;;;5056513;28;20164;-82
2021/05/22 02:42:54;;;;;;;5.13;3.30;;;;;;;;;;5056760;28;20176;-82
2021/05/22 02:45:20;;;;;;;3.67;3.37;;;;;;;;;;5056735;28;20187;-82
2021/05/22 02:47:47;;;;;;;4.23;3.70;;;;;;;;;;5056426;28;20171;-83
2021/05/22 02:50:13;;;;;;;5.07;4.00;;;;;;;;;;5056596;28;20171;-83
2021/05/22 02:52:39;;;;;;;4.20;3.60;;;;;;;;;;5055351;28;20515;-83
2021/05/22 02:55:05;;;;;;;4.20;3.50;;;;;;;;;;5055833;28;20206;-83
2021/05/22 02:57:32;;;;;;;3.80;3.40;;;;;;;;;;5055825;28;20184;-83
2021/05/22 02:59:57;;;;;;;4.97;3.60;;;;;;;;;;5055872;28;20175;-83
2021/05/22 03:02:23;;;;;;;4.43;4.03;;;;;;;;;;5056123;28;20176;-82
2021/05/22 03:04:48;;;;;;;4.57;4.17;;;;;;;;;;5055766;28;20259;-82
2021/05/22 03:07:14;;;;;;;4.00;3.60;;;;;;;;;;5056426;28;20586;-82
2021/05/22 03:09:39;;;;;;;5.03;3.97;;;;;;;;;;5056378;28;20210;-83
2021/05/22 03:12:05;;;;;;;4.00;3.70;;;;;;;;;;5055972;28;20612;-83
2021/05/22 03:14:30;;;;;;;3.63;3.33;;;;;;;;;;5055965;28;20171;-83
2021/05/22 03:16:57;;;;;;;3.83;3.53;;;;;;;;;;5055608;28;20171;-83
2021/05/22 03:19:22;;;;;;;4.30;3.90;;;;;;;;;;5055815;28;20179;-83
2021/05/22 03:21:47;;;;;;;4.60;4.10;;;;;;;;;;5055760;28;20164;-83
2021/05/22 03:24:13;;;;;;;5.17;4.67;;;;;;;;;;5056025;28;20168;-83
2021/05/22 03:26:38;;;;;;;7.93;7.13;;;;;;;;;;5055653;28;20192;-83
2021/05/22 03:29:03;;;;;;;9.17;8.23;;;;;;;;;;5055772;28;20176;-83
2021/05/22 03:31:29;;;;;;;7.60;6.80;;;;;;;;;;5055114;28;20239;-84
2021/05/22 03:33:54;;;;;;;6.77;6.13;;;;;;;;;;5055539;28;20172;-84
2021/05/22 03:36:20;;;;;;;5.90;4.93;;;;;;;;;;5055703;28;20634;-84
2021/05/22 03:38:45;;;;;;;4.97;4.50;;;;;;;;;;5055437;28;20221;-83
2021/05/22 03:41:10;;;;;;;4.83;4.00;;;;;;;;;;5055152;28;20171;-83
2021/05/22 03:43:36;;;;;;;4.20;3.77;;;;;;;;;;5055848;28;20176;-84
2021/05/22 03:46:01;;;;;;;4.37;3.97;;;;;;;;;;5055022;28;20171;-84
2021/05/22 03:48:27;;;;;;;5.53;3.70;;;;;;;;;;5055035;28;20172;-84
2021/05/22 03:50:54;;;;;;;5.30;3.83;;;;;;;;;;5055130;28;20191;-84
2021/05/22 03:53:19;;;;;;;11.07;9.83;;;;;;;;;;5055720;28;20172;-84
2021/05/22 03:55:45;;;;;;;13.57;12.20;;;;;;;;;;5055058;28;20250;-83
2021/05/22 03:58:10;;;;;;;8.70;7.87;;;;;;;;;;5055176;28;20176;-83
2021/05/22 04:00:36;;;;;;;6.77;6.07;;;;;;;;;;5055386;28;20167;-83
2021/05/22 04:03:01;;;;;;;8.50;6.07;;;;;;;;;;5055051;28;20168;-83
2021/05/22 04:05:26;;;;;;;6.30;5.70;;;;;;;;;;5054932;28;20612;-83
2021/05/22 04:07:52;;;;;;;5.57;4.93;;;;;;;;;;5055428;28;20168;-83
2021/05/22 04:10:17;;;;;;;7.30;4.97;;;;;;;;;;5055069;28;20179;-83
2021/05/22 04:12:42;;;;;;;5.17;4.67;;;;;;;;;;5054751;28;20202;-83
2021/05/22 04:15:08;;;;;;;5.20;4.60;;;;;;;;;;5054438;28;20203;-83
2021/05/22 04:17:33;;;;;;;5.23;4.73;;;;;;;;;;5054503;28;20207;-83
2021/05/22 04:19:59;;;;;;;4.87;4.47;;;;;;;;;;5055041;28;20263;-83
2021/05/22 04:22:24;;;;;;;4.60;4.20;;;;;;;;;;5054463;28;20176;-84
2021/05/22 04:24:50;;;;;;;4.20;3.80;;;;;;;;;;5054575;28;20695;-83
2021/05/22 04:27:15;;;;;;;5.20;4.20;;;;;;;;;;5054103;28;20191;-83
2021/05/22 04:29:40;;;;;;;4.77;4.30;;;;;;;;;;5054190;28;20249;-83
2021/05/22 04:32:06;;;;;;;4.43;4.03;;;;;;;;;;5054485;28;20575;-83
2021/05/22 04:34:31;;;;;;;7.70;4.50;;;;;;;;;;5055201;28;20493;-84
2021/05/22 04:36:57;;;;;;;7.30;4.37;;;;;;;;;;5055167;28;20525;-84
2021/05/22 04:39:22;;;;;;;5.17;4.30;;;;;;;;;;5054494;28;20214;-84
2021/05/22 04:41:48;;;;;;;5.57;4.00;;;;;;;;;;5053988;28;20639;-83
2021/05/22 04:44:13;;;;;;;7.30;4.67;;;;;;;;;;5053930;28;20676;-84
2021/05/22 04:46:38;;;;;;;5.17;4.67;;;;;;;;;;5054455;28;20501;-84
2021/05/22 04:49:04;;;;;;;6.13;5.00;;;;;;;;;;5054105;28;20176;-84
2021/05/22 04:51:29;;;;;;;6.57;4.70;;;;;;;;;;5054627;28;20601;-84
2021/05/22 04:54:06;;;;;;;9.00;4.70;;;;;;;;;;5054024;28;20521;-84
2021/05/22 04:56:31;;;;;;;7.37;4.37;;;;;;;;;;5054589;28;20309;-84
2021/05/22 04:58:56;;;;;;;5.73;4.80;;;;;;;;;;5053814;28;20536;-84
2021/05/22 05:01:22;;;;;;;8.30;4.90;;;;;;;;;;5053678;28;20252;-84
2021/05/22 05:03:47;;;;;;;5.60;4.63;;;;;;;;;;5053910;28;20167;-84
2021/05/22 05:06:13;;;;;;;5.60;5.00;;;;;;;;;;5053903;28;20183;-84
2021/05/22 05:08:38;;;;;;;6.73;4.70;;;;;;;;;;5053836;28;20672;-84
2021/05/22 05:11:04;;;;;;;5.67;4.60;;;;;;;;;;5054303;28;20262;-83
2021/05/22 05:13:31;;;;;;;7.97;5.00;;;;;;;;;;5053810;28;20251;-84
2021/05/22 05:15:56;;;;;;;4.50;4.10;;;;;;;;;;5053767;28;20195;-84
2021/05/22 05:18:21;;;;;;;5.57;4.30;;;;;;;;;;5054056;28;20222;-84
2021/05/22 05:20:47;;;;;;;5.10;4.23;;;;;;;;;;5054032;28;20528;-84
2021/05/22 05:23:12;;;;;;;4.50;4.10;;;;;;;;;;5053983;28;20635;-84
2021/05/22 05:25:37;;;;;;;6.00;4.50;;;;;;;;;;5054418;28;20175;-84
2021/05/22 05:28:03;;;;;;;5.17;4.00;;;;;;;;;;5053592;28;20620;-84
2021/05/22 05:30:28;;;;;;;4.27;3.87;;;;;;;;;;5053828;28;20222;-84
2021/05/22 05:32:54;;;;;;;5.03;3.77;;;;;;;;;;5053813;28;20180;-84
2021/05/22 05:35:19;;;;;;;4.37;3.97;;;;;;;;;;5053545;28;20210;-84
2021/05/22 05:37:44;;;;;;;5.77;4.00;;;;;;;;;;5053717;28;20163;-84
2021/05/22 05:40:10;;;;;;;5.17;4.00;;;;;;;;;;5053583;28;20624;-84
2021/05/22 05:42:35;;;;;;;5.80;3.78;;;;;;;;;;5053143;28;20187;-84
2021/05/22 05:45:01;;;;;;;4.30;3.88;;;;;;;;;;5053545;28;20187;-85
2021/05/22 05:47:26;;;;;;;3.97;3.60;;;;;;;;;;5053227;28;20554;-85
2021/05/22 05:49:52;;;;;;;12.70;3.35;;;;;;;;;;5053760;28;20210;-86
2021/05/22 05:52:17;;;;;;;3.90;3.30;;;;;;;;;;5053495;28;20559;-85
2021/05/22 05:54:42;;;;;;;3.40;3.10;;;;;;;;;;5056927;28;20195;-85
2021/05/22 05:57:08;;;;;;;3.30;3.10;;;;;;;;;;5057160;28;20647;-86
2021/05/22 05:59:33;;;;;;;4.70;3.00;;;;;;;;;;5057288;28;20176;-86
2021/05/22 06:01:58;;;;;;;2.88;2.67;;;;;;;;;;5056951;28;20164;-86
2021/05/22 06:04:24;;;;;;;2.78;2.58;;;;;;;;;;5056935;28;20164;-86
2021/05/22 06:06:50;;;;;;;2.90;2.70;;;;;;;;;;5057697;28;20488;-86
2021/05/22 06:09:15;;;;;;;2.45;2.30;;;;;;;;;;5057172;28;20616;-86
2021/05/22 06:11:40;;;;;;;2.45;2.35;;;;;;;;;;5057073;28;20210;-86
2021/05/22 06:14:12;;;;;;;2.60;2.40;;;;;;;;;;5057424;28;20164;-86
2021/05/22 06:16:37;;;;;;;2.72;2.53;;;;;;;;;;5057609;28;20194;-88
2021/05/22 06:19:03;;;;;;;3.67;2.55;;;;;;;;;;5056679;28;20175;-86
2021/05/22 06:21:28;;;;;;;3.85;3.38;;;;;;;;;;5056633;28;20172;-84
2021/05/22 06:23:54;;;;;;;2.17;2.00;;;;;;;;;;5057103;28;20164;-84
2021/05/22 06:26:19;;;;;;;2.25;2.15;;;;;;;;;;5056942;28;20287;-84
2021/05/22 06:28:45;;;;;;;2.55;2.40;;;;;;;;;;5056772;28;20171;-85
2021/05/22 06:31:10;;;;;;;2.88;2.38;;;;;;;;;;5056909;28;20228;-85
2021/05/22 06:33:35;;;;;;;2.60;2.40;;;;;;;;;;5056665;28;20168;-85
2021/05/22 06:36:01;;;;;;;3.40;2.30;;;;;;;;;;5056670;28;20194;-85
2021/05/22 06:38:27;;;;;;;2.55;2.10;;;;;;;;;;5056270;28;20175;-85
2021/05/22 06:40:53;;;;;;;2.10;1.95;;;;;;;;;;5056282;28;20172;-86
2021/05/22 06:43:19;;;;;;;2.15;2.05;;;;;;;;;;5056292;28;20170;-84
2021/05/22 06:45:45;;;;;;;1.85;1.75;;;;;;;;;;5054986;28;20226;-84
2021/05/22 06:48:12;;;;;;;2.30;2.10;;;;;;;;;;5055831;28;20225;-84
2021/05/22 06:50:37;;;;;;;2.60;2.40;;;;;;;;;;5056444;28;20516;-86
2021/05/22 06:53:03;;;;;;;2.25;2.15;;;;;;;;;;5056533;28;20170;-86
2021/05/22 06:55:28;;;;;;;2.13;1.95;;;;;;;;;;5056305;28;20586;-86
2021/05/22 06:57:54;;;;;;;3.35;2.08;;;;;;;;;;5056303;28;20639;-87
2021/05/22 07:00:19;;;;;;;2.10;2.00;;;;;;;;;;5056204;28;20246;-85
2021/05/22 07:02:45;;;;;;;2.30;2.20;;;;;;;;;;5056448;28;20188;-85
2021/05/22 07:05:10;;;;;;;2.20;1.90;;;;;;;;;;5055602;28;20638;-85
2021/05/22 07:07:38;;;;;;;2.55;2.15;;;;;;;;;;5056580;28;20168;-88
2021/05/22 07:10:04;;;;;;;3.80;2.15;;;;;;;;;;5055894;28;20176;-89
2021/05/22 07:12:29;;;;;;;2.40;2.20;;;;;;;;;;5055712;28;20167;-89
2021/05/22 07:14:54;;;;;;;3.15;2.50;;;;;;;;;;5055372;28;20203;-86
2021/05/22 07:17:19;;;;;;;3.08;2.40;;;;;;;;;;5055930;28;20206;-85
2021/05/22 07:19:45;;;;;;;3.83;2.67;;;;;;;;;;5055900;28;20168;-84
2021/05/22 07:22:10;;;;;;;3.13;2.80;;;;;;;;;;5055902;28;20175;-85
2021/05/22 07:24:35;;;;;;;3.22;3.03;;;;;;;;;;5055784;28;20250;-85
2021/05/22 07:27:01;;;;;;;6.35;2.92;;;;;;;;;;5055956;28;20283;-85
2021/05/22 07:29:27;;;;;;;3.10;2.90;;;;;;;;;;5055633;28;20171;-86
2021/05/22 07:31:52;;;;;;;3.97;3.03;;;;;;;;;;5055621;28;20228;-86
2021/05/22 07:34:18;;;;;;;4.82;3.30;;;;;;;;;;5055863;28;20178;-87
2021/05/22 07:36:43;;;;;;;4.35;3.95;;;;;;;;;;5055590;28;20234;-87
2021/05/22 07:39:12;;;;;;;4.53;3.10;;;;;;;;;;5055240;28;20267;-87
2021/05/22 07:41:37;;;;;;;3.70;3.17;;;;;;;;;;5055869;28;20586;-86
2021/05/22 07:44:03;;;;;;;3.67;3.38;;;;;;;;;;5059064;28;20168;-88
2021/05/22 07:46:28;;;;;;;3.83;3.35;;;;;;;;;;5069804;28;20274;-88
2021/05/22 07:48:53;;;;;;;3.60;3.30;;;;;;;;;;5049950;28;20267;-88
2021/05/22 07:51:19;;;;;;;3.92;3.60;;;;;;;;;;5053158;28;20178;-89
2021/05/22 07:53:44;;;;;;;6.07;4.20;;;;;;;;;;5052429;28;20229;-87
2021/05/22 07:56:10;;;;;;;4.22;3.90;;;;;;;;;;5053500;28;20215;-88
2021/05/22 07:58:35;;;;;;;3.90;3.60;;;;;;;;;;5047505;28;20230;-87
2021/05/22 08:01:00;;;;;;;3.63;3.33;;;;;;;;;;5044128;28;20180;-87
2021/05/22 08:03:26;;;;;;;4.38;3.97;;;;;;;;;;5043612;28;20213;-87
2021/05/22 08:05:51;;;;;;;4.37;3.50;;;;;;;;;;5042325;28;20180;-88
2021/05/22 08:08:17;;;;;;;4.07;3.37;;;;;;;;;;5043192;28;20182;-88
2021/05/22 08:10:42;;;;;;;4.13;3.83;;;;;;;;;;5044990;28;20175;-87
2021/05/22 08:13:09;;;;;;;3.90;3.60;;;;;;;;;;5043629;28;20241;-88
2021/05/22 08:15:35;;;;;;;4.30;3.90;;;;;;;;;;5043154;28;20211;-86
2021/05/22 08:18:00;;;;;;;7.07;4.70;;;;;;;;;;5045251;28;20504;-87
2021/05/22 08:20:26;;;;;;;4.93;4.43;;;;;;;;;;5060879;28;20608;-87
2021/05/22 08:22:51;;;;;;;4.37;3.77;;;;;;;;;;5046107;28;20175;-87
2021/05/22 08:25:16;;;;;;;3.90;3.60;;;;;;;;;;5042895;28;20681;-87
2021/05/22 08:27:42;;;;;;;5.70;4.60;;;;;;;;;;5038844;28;20637;-87
2021/05/22 08:30:09;;;;;;;6.50;4.43;;;;;;;;;;5034250;28;20256;-86
2021/05/22 08:32:34;;;;;;;5.93;4.13;;;;;;;;;;5034782;28;20291;-86
2021/05/22 08:34:59;;;;;;;4.23;3.90;;;;;;;;;;5034565;28;20280;-86
2021/05/22 08:37:25;;;;;;;4.53;4.13;;;;;;;;;;5034877;28;20176;-86
2021/05/22 08:39:52;;;;;;;5.07;4.00;;;;;;;;;;5034077;28;20169;-86
2021/05/22 08:42:25;;;;;;;6.33;4.90;;;;;;;;;;5033588;28;20176;-86
2021/05/22 08:44:50;;;;;;;5.27;4.77;;;;;;;;;;5034785;28;20172;-86
2021/05/22 08:47:16;;;;;;;5.13;4.40;;;;;;;;;;5034569;28;20259;-86
2021/05/22 08:49:42;;;;;;;5.10;4.60;;;;;;;;;;5034253;28;20222;-86
2021/05/22 08:52:08;;;;;;;4.03;3.73;;;;;;;;;;5034020;28;20727;-86
2021/05/22 08:54:33;;;;;;;5.63;3.87;;;;;;;;;;5034332;28;20660;-86
2021/05/22 08:56:59;;;;;;;4.53;3.90;;;;;;;;;;5034279;28;20212;-86
2021/05/22 08:59:25;;;;;;;4.33;3.93;;;;;;;;;;5033779;28;20165;-88
2021/05/22 09:01:50;;;;;;;6.03;4.23;;;;;;;;;;5034271;28;20633;-89
2021/05/22 09:04:15;;;;;;;4.17;3.77;;;;;;;;;;5034030;28;20169;-89
2021/05/22 09:06:58;;;;;;;4.30;3.90;;;;;;;;;;5036474;28;20175;-89
2021/05/22 09:09:36;;;;;;;4.70;3.77;;;;;;;;;;5044617;28;20168;-87
2021/05/22 09:12:01;;;;;;;5.97;3.50;;;;;;;;;;5044350;28;20648;-89
2021/05/22 09:14:40;;;;;;;4.23;3.80;;;;;;;;;;5042285;28;20165;-89
2021/05/22 09:17:06;;;;;;;6.10;3.60;;;;;;;;;;5042169;28;20176;-89
2021/05/22 09:19:32;;;;;;;5.63;3.70;;;;;;;;;;5040946;28;20632;-85
2021/05/22 09:21:57;;;;;;;5.23;3.93;;;;;;;;;;5033671;28;20192;-85
2021/05/22 09:24:22;;;;;;;4.73;4.00;;;;;;;;;;5048592;28;20178;-85
2021/05/22 09:26:48;;;;;;;4.57;4.03;;;;;;;;;;5053586;28;20223;-85
2021/05/22 09:29:25;;;;;;;4.70;4.17;;;;;;;;;;5060315;28;20166;-85
2021/05/22 09:31:50;;;;;;;4.70;4.20;;;;;;;;;;5059876;28;20358;-85
2021/05/22 09:34:26;;;;;;;4.50;4.10;;;;;;;;;;5059950;28;20247;-85
2021/05/22 09:36:52;;;;;;;4.20;3.80;;;;;;;;;;5059824;28;20183;-85
2021/05/22 09:39:18;;;;;;;5.60;3.33;;;;;;;;;;5059840;28;20585;-85
2021/05/22 09:41:43;;;;;;;8.67;3.23;;;;;;;;;;5059074;28;20263;-85
2021/05/22 09:44:15;;;;;;;3.47;3.20;;;;;;;;;;5060221;28;20168;-85
2021/05/22 09:46:43;;;;;;;4.40;4.00;;;;;;;;;;5059090;28;20258;-85
2021/05/22 09:49:09;;;;;;;5.83;3.80;;;;;;;;;;5059366;28;20171;-85
2021/05/22 09:51:53;;;;;;;4.87;3.90;;;;;;;;;;5056675;28;20175;-84
2021/05/22 09:54:26;;;;;;;7.70;3.90;;;;;;;;;;5057608;28;20198;-85
2021/05/22 09:56:51;;;;;;;4.03;3.70;;;;;;;;;;5059700;28;20555;-85
2021/05/22 09:59:16;;;;;;;6.27;4.17;;;;;;;;;;5059642;28;20172;-85
2021/05/22 10:01:42;;;;;;;4.03;3.70;;;;;;;;;;5059757;28;20573;-86
2021/05/22 10:04:17;;;;;;;4.83;3.87;;;;;;;;;;5059727;28;20204;-85
2021/05/22 10:06:43;;;;;;;4.20;3.80;;;;;;;;;;5059939;28;20233;-86
2021/05/22 10:09:12;;;;;;;4.27;3.87;;;;;;;;;;5059681;28;20163;-85
2021/05/22 10:11:56;;;;;;;5.50;3.70;;;;;;;;;;5059356;28;20164;-84
2021/05/22 10:14:22;;;;;;;4.93;4.20;;;;;;;;;;5059660;28;20199;-85
2021/05/22 10:16:47;;;;;;;4.60;4.20;;;;;;;;;;5059425;28;20223;-85
2021/05/22 10:19:12;;;;;;;6.70;4.60;;;;;;;;;;5059586;28;20172;-84
2021/05/22 10:21:38;;;;;;;6.63;4.70;;;;;;;;;;5059454;28;20675;-85
2021/05/22 10:24:03;;;;;;;4.87;4.43;;;;;;;;;;5059580;28;20187;-85
2021/05/22 10:26:29;;;;;;;6.13;5.00;;;;;;;;;;5059646;28;20293;-84
2021/05/22 10:28:55;;;;;;;4.50;4.10;;;;;;;;;;5057355;28;20214;-83
2021/05/22 10:31:21;;;;;;;4.43;3.90;;;;;;;;;;5059383;28;20269;-84
2021/05/22 10:33:46;;;;;;;4.17;3.77;;;;;;;;;;5059120;28;20616;-84
2021/05/22 10:36:12;;;;;;;4.17;3.60;;;;;;;;;;5059412;28;20191;-85
2021/05/22 10:38:42;;;;;;;4.43;4.03;;;;;;;;;;5058419;28;20257;-84
2021/05/22 10:41:12;;;;;;;5.10;4.23;;;;;;;;;;5056544;28;20217;-84
2021/05/22 10:43:43;;;;;;;4.77;4.17;;;;;;;;;;5056685;28;20616;-83
2021/05/22 10:46:08;;;;;;;5.93;4.10;;;;;;;;;;5054252;28;20188;-83
2021/05/22 10:48:45;;;;;;;4.97;4.13;;;;;;;;;;5054644;28;20354;-84
2021/05/22 10:51:25;;;;;;;4.20;3.80;;;;;;;;;;5056651;28;20316;-84
2021/05/22 10:53:58;;;;;;;6.77;4.57;;;;;;;;;;5056865;28;20619;-84
2021/05/22 10:56:23;;;;;;;5.70;5.00;;;;;;;;;;5055867;28;20278;-84
2021/05/22 10:58:58;;;;;;;4.57;4.17;;;;;;;;;;5054930;28;20310;-83
2021/05/22 11:01:23;;;;;;;5.40;4.40;;;;;;;;;;5055931;28;20178;-83
2021/05/22 11:04:11;;;;;;;4.50;3.90;;;;;;;;;;5053905;28;20184;-84
2021/05/22 11:06:39;;;;;;;4.77;4.00;;;;;;;;;;5053839;28;20191;-86
2021/05/22 11:09:25;;;;;;;5.53;4.43;;;;;;;;;;5053954;28;20179;-86
2021/05/22 11:11:51;;;;;;;8.43;4.50;;;;;;;;;;5051871;28;20222;-86
2021/05/22 11:14:34;;;;;;;5.70;4.07;;;;;;;;;;5055736;28;20172;-86
2021/05/22 11:17:00;;;;;;;6.27;4.23;;;;;;;;;;5055784;28;20196;-86
2021/05/22 11:19:25;;;;;;;5.40;4.90;;;;;;;;;;5055811;28;20194;-86
2021/05/22 11:22:26;;;;;;;5.97;4.63;;;;;;;;;;5055467;28;20164;-87
2021/05/22 11:25:01;;;;;;;4.83;4.33;;;;;;;;;;5032182;28;20636;-86
2021/05/22 11:27:45;;;;;;;5.43;4.53;;;;;;;;;;5049889;28;20765;-86
2021/05/22 11:30:11;;;;;;;7.13;5.10;;;;;;;;;;5055039;28;20231;-86
2021/05/22 11:32:43;;;;;;;5.90;5.30;;;;;;;;;;5055254;28;20542;-86
2021/05/22 11:35:24;;;;;;;5.87;4.70;;;;;;;;;;5055258;28;20545;-86
2021/05/22 11:37:49;;;;;;;5.20;4.60;;;;;;;;;;5054354;28;20183;-87
2021/05/22 11:40:34;;;;;;;5.57;4.83;;;;;;;;;;5054732;28;20176;-87
2021/05/22 11:43:02;;;;;;;6.20;5.23;;;;;;;;;;5055179;28;20180;-85
2021/05/22 11:45:32;;;;;;;5.53;4.87;;;;;;;;;;5054385;28;20520;-85
2021/05/22 11:47:57;;;;;;;5.70;5.00;;;;;;;;;;5055642;28;20164;-86
2021/05/22 11:50:23;;;;;;;5.10;4.70;;;;;;;;;;5054505;28;20521;-86
2021/05/22 11:52:49;;;;;;;5.87;4.60;;;;;;;;;;5054930;28;20676;-85
2021/05/22 11:55:18;;;;;;;7.10;5.80;;;;;;;;;;5054605;28;20287;-85
2021/05/22 11:57:43;;;;;;;6.77;5.80;;;;;;;;;;5055219;28;20206;-85
2021/05/22 12:00:09;;;;;;;4.67;4.27;;;;;;;;;;5055229;28;20171;-85
2021/05/22 12:02:38;;;;;;;6.07;5.27;;;;;;;;;;5054846;28;20171;-86
2021/05/22 12:05:04;;;;;;;5.37;4.87;;;;;;;;;;5054903;28;20171;-87
2021/05/22 12:07:46;;;;;;;4.77;4.37;;;;;;;;;;5053377;28;20175;-87
2021/05/22 12:10:15;;;;;;;5.77;4.70;;;;;;;;;;5054254;28;20536;-87
2021/05/22 12:12:41;;;;;;;5.77;4.83;;;;;;;;;;5050913;28;20222;-85
2021/05/22 12:15:06;;;;;;;8.27;5.40;;;;;;;;;;5066580;28;20231;-85
2021/05/22 12:17:42;;;;;;;7.50;4.57;;;;;;;;;;5054216;28;20176;-85
2021/05/22 12:20:08;;;;;;;4.17;3.60;;;;;;;;;;5054395;28;20156;-85
2021/05/22 12:22:33;;;;;;;8.33;3.80;;;;;;;;;;5054457;28;20179;-84
2021/05/22 12:24:59;;;;;;;4.43;4.03;;;;;;;;;;5051024;28;20179;-85
2021/05/22 12:27:24;;;;;;;4.40;4.00;;;;;;;;;;5054042;28;20249;-85
2021/05/22 12:29:54;;;;;;;4.40;4.00;;;;;;;;;;5053989;28;20535;-86
2021/05/22 12:32:20;;;;;;;4.50;4.10;;;;;;;;;;5053455;28;20225;-85
2021/05/22 12:34:46;;;;;;;4.40;4.00;;;;;;;;;;5053508;28;20217;-86
2021/05/22 12:37:22;;;;;;;4.53;4.13;;;;;;;;;;5051428;28;20187;-87
2021/05/22 12:39:48;;;;;;;5.40;4.90;;;;;;;;;;5053889;28;20282;-86
2021/05/22 12:42:17;;;;;;;4.60;4.20;;;;;;;;;;5035005;28;20536;-85
2021/05/22 12:44:42;;;;;;;5.27;4.37;;;;;;;;;;5032915;28;20179;-85
2021/05/22 12:47:08;;;;;;;6.87;5.50;;;;;;;;;;5039755;28;20167;-85
2021/05/22 12:49:33;;;;;;;5.83;5.00;;;;;;;;;;5048974;28;20177;-86
2021/05/22 12:52:00;;;;;;;8.33;5.30;;;;;;;;;;5033841;28;20175;-86
2021/05/22 12:54:25;;;;;;;7.07;5.60;;;;;;;;;;5034293;28;20173;-85
2021/05/22 12:57:02;;;;;;;10.17;6.50;;;;;;;;;;5053733;28;20257;-86
2021/05/22 12:59:28;;;;;;;6.50;5.47;;;;;;;;;;5053428;28;20229;-85
2021/05/22 13:02:12;;;;;;;8.43;5.90;;;;;;;;;;5053488;28;20176;-86
2021/05/22 13:04:37;;;;;;;7.50;5.53;;;;;;;;;;5053704;28;20172;-85
2021/05/22 13:07:03;;;;;;;6.53;5.00;;;;;;;;;;5040600;28;20183;-85
2021/05/22 13:09:28;;;;;;;9.00;5.73;;;;;;;;;;5045415;28;20184;-85
2021/05/22 13:11:57;;;;;;;6.63;5.03;;;;;;;;;;5041748;28;20185;-85
2021/05/22 13:14:23;;;;;;;5.00;4.50;;;;;;;;;;5043771;28;20182;-85
2021/05/22 13:16:56;;;;;;;4.73;4.00;;;;;;;;;;5043221;28;20209;-85
2021/05/22 13:19:41;;;;;;;5.93;5.03;;;;;;;;;;5039934;28;20180;-86
2021/05/22 13:22:24;;;;;;;7.10;5.07;;;;;;;;;;5043901;28;20198;-87
2021/05/22 13:25:03;;;;;;;5.17;4.67;;;;;;;;;;5042278;28;20179;-86
2021/05/22 13:27:28;;;;;;;6.13;4.67;;;;;;;;;;5042927;28;20238;-85
2021/05/22 13:29:58;;;;;;;6.73;4.37;;;;;;;;;;5042902;28;20169;-86
2021/05/22 13:32:23;;;;;;;4.37;3.97;;;;;;;;;;5040198;28;20179;-87
2021/05/22 13:34:50;;;;;;;4.10;3.80;;;;;;;;;;5046325;28;20222;-86
2021/05/22 13:37:16;;;;;;;7.03;4.30;;;;;;;;;;5053072;28;20184;-86
2021/05/22 13:39:41;;;;;;;5.43;4.83;;;;;;;;;;5053734;28;20179;-85
2021/05/22 13:42:07;;;;;;;4.73;4.23;;;;;;;;;;5053723;28;20178;-86
2021/05/22 13:44:32;;;;;;;4.70;4.30;;;;;;;;;;5053452;28;20258;-86
2021/05/22 13:46:57;;;;;;;5.20;4.60;;;;;;;;;;5066267;28;20180;-85
2021/05/22 13:49:23;;;;;;;5.07;4.60;;;;;;;;;;5053225;28;20168;-85
2021/05/22 13:51:49;;;;;;;6.93;5.17;;;;;;;;;;5052532;28;20176;-85
2021/05/22 13:54:14;;;;;;;7.67;5.43;;;;;;;;;;5053542;28;20190;-86
2021/05/22 13:56:40;;;;;;;6.43;5.40;;;;;;;;;;5047714;28;20293;-86
2021/05/22 13:59:05;;;;;;;5.27;4.77;;;;;;;;;;5040674;28;20648;-87
2021/05/22 14:01:30;;;;;;;5.27;4.30;;;;;;;;;;5053297;28;20705;-87
2021/05/22 14:03:56;;;;;;;6.03;4.70;;;;;;;;;;5052235;28;20259;-85
2021/05/22 14:06:22;;;;;;;5.57;4.67;;;;;;;;;;5048048;28;20203;-86
2021/05/22 14:08:47;;;;;;;4.73;4.30;;;;;;;;;;5050947;28;20218;-86
2021/05/22 14:11:13;;;;;;;5.43;4.40;;;;;;;;;;5052857;28;20640;-88
2021/05/22 14:13:38;;;;;;;5.83;4.80;;;;;;;;;;5052900;28;20168;-89
2021/05/22 14:16:05;;;;;;;4.90;4.40;;;;;;;;;;5049186;28;20567;-85
2021/05/22 14:18:31;;;;;;;6.60;5.00;;;;;;;;;;5044306;28;20262;-86
2021/05/22 14:20:56;;;;;;;6.50;5.20;;;;;;;;;;5039381;28;20262;-84
2021/05/22 14:23:22;;;;;;;7.80;5.20;;;;;;;;;;5043409;28;20187;-87
2021/05/22 14:25:49;;;;;;;6.83;5.73;;;;;;;;;;5047411;28;20516;-85
2021/05/22 14:28:14;;;;;;;6.70;5.53;;;;;;;;;;5047433;28;20196;-87
2021/05/22 14:30:39;;;;;;;5.80;5.10;;;;;;;;;;5049516;28;20292;-87
2021/05/22 14:33:05;;;;;;;4.97;4.47;;;;;;;;;;5054594;28;20234;-86
2021/05/22 14:35:30;;;;;;;6.03;4.20;;;;;;;;;;5056091;28;20204;-85
2021/05/22 14:37:56;;;;;;;4.30;3.90;;;;;;;;;;5054592;28;20186;-85
2021/05/22 14:40:21;;;;;;;4.63;4.17;;;;;;;;;;5054846;28;20181;-86
2021/05/22 14:42:47;;;;;;;5.17;3.80;;;;;;;;;;5047198;28;20620;-84